createdAt,value
2023-01-17T00:02:09.833Z,2.84
2023-01-17T00:04:55.763Z,2.83
2023-01-17T00:07:42.942Z,2.81
2023-01-17T00:10:13.472Z,2.79
2023-01-17T00:12:46.455Z,2.82
2023-01-17T00:15:13.691Z,2.87
2023-01-17T00:17:40.565Z,2.89
2023-01-17T00:20:31.355Z,2.89
2023-01-17T00:23:17.246Z,2.92
2023-01-17T00:26:02.424Z,2.96
2023-01-17T00:28:37.974Z,3.00
2023-01-17T00:31:08.256Z,3.02
2023-01-17T00:33:35.762Z,3.03
2023-01-17T00:36:04.434Z,3.06
2023-01-17T00:38:34.946Z,3.08
2023-01-17T00:41:13.272Z,3.08
2023-01-17T00:43:59.379Z,3.08
2023-01-17T00:46:45.551Z,3.09
2023-01-17T00:49:31.808Z,3.10
2023-01-17T00:52:17.270Z,3.08
2023-01-17T00:55:02.825Z,3.07
2023-01-17T00:57:48.421Z,3.05
2023-01-17T01:00:36.884Z,3.04
2023-01-17T01:03:28.096Z,3.02
2023-01-17T01:06:13.712Z,3.00
2023-01-17T01:08:59.443Z,2.99
2023-01-17T01:11:44.972Z,2.97
2023-01-17T01:14:30.524Z,2.98
2023-01-17T01:17:15.888Z,3.01
2023-01-17T01:20:01.363Z,3.04
2023-01-17T01:22:46.767Z,3.07
2023-01-17T01:25:32.324Z,3.11
2023-01-17T01:28:44.427Z,3.10
2023-01-17T01:31:30.143Z,3.11
2023-01-17T01:33:57.266Z,3.13
2023-01-17T01:36:24.008Z,3.15
2023-01-17T01:38:50.771Z,3.17
2023-01-17T01:41:17.691Z,3.19
2023-01-17T01:43:55.389Z,3.17
2023-01-17T01:46:28.373Z,3.09
2023-01-17T01:49:11.927Z,3.00
2023-01-17T01:51:42.438Z,2.96
2023-01-17T01:54:17.308Z,2.89
2023-01-17T01:56:46.160Z,2.82
2023-01-17T01:59:17.405Z,2.74
2023-01-17T02:01:44.279Z,2.65
2023-01-17T02:04:12.565Z,2.59
2023-01-17T02:06:43.365Z,2.52
2023-01-17T02:09:12.153Z,2.45
2023-01-17T02:11:40.227Z,2.37
2023-01-17T02:14:08.397Z,2.30
2023-01-17T02:16:38.143Z,2.23
2023-01-17T02:19:45.604Z,2.19
2023-01-17T02:22:21.364Z,2.13
2023-01-17T02:24:58.662Z,2.12
2023-01-17T02:27:29.029Z,2.05
2023-01-17T02:30:14.474Z,2.00
2023-01-17T02:32:58.084Z,1.99
2023-01-17T02:35:33.131Z,1.99
2023-01-17T02:38:12.149Z,1.99
2023-01-17T02:40:47.321Z,1.99
2023-01-17T02:43:16.177Z,2.00
2023-01-17T02:45:43.383Z,2.02
2023-01-17T02:48:14.201Z,2.01
2023-01-17T02:51:05.379Z,1.96
2023-01-17T02:53:42.485Z,1.85
2023-01-17T02:56:28.359Z,1.78
2023-01-17T02:59:14.183Z,1.72
2023-01-17T03:01:53.555Z,1.65
2023-01-17T03:04:59.223Z,1.57
2023-01-17T03:07:28.444Z,1.50
2023-01-17T03:10:00.293Z,1.45
2023-01-17T03:12:34.594Z,1.41
2023-01-17T03:15:01.239Z,1.35
2023-01-17T03:17:32.599Z,1.29
2023-01-17T03:19:59.336Z,1.25
2023-01-17T03:22:26.267Z,1.23
2023-01-17T03:24:53.088Z,1.22
2023-01-17T03:27:20.019Z,1.23
2023-01-17T03:29:46.712Z,1.24
2023-01-17T03:32:13.457Z,1.28
2023-01-17T03:34:40.088Z,1.32
2023-01-17T03:37:07.039Z,1.37
2023-01-17T03:39:34.324Z,1.44
2023-01-17T03:42:01.163Z,1.48
2023-01-17T03:44:28.687Z,1.51
2023-01-17T03:46:55.750Z,1.55
2023-01-17T03:49:22.680Z,1.60
2023-01-17T03:51:49.636Z,1.61
2023-01-17T03:54:16.572Z,1.63
2023-01-17T03:56:43.319Z,1.68
2023-01-17T03:59:12.970Z,1.75
2023-01-17T04:01:40.138Z,1.81
2023-01-17T04:04:07.131Z,1.85
2023-01-17T04:06:33.859Z,1.85
2023-01-17T04:09:00.541Z,1.83
2023-01-17T04:11:27.443Z,1.81
2023-01-17T04:13:54.723Z,1.78
2023-01-17T04:16:26.978Z,1.74
2023-01-17T04:18:54.217Z,1.70
2023-01-17T04:21:21.587Z,1.67
2023-01-17T04:23:48.684Z,1.61
2023-01-17T04:26:15.466Z,1.57
2023-01-17T04:28:42.696Z,1.56
2023-01-17T04:31:15.504Z,1.56
2023-01-17T04:33:42.547Z,1.57
2023-01-17T04:36:09.290Z,1.59
2023-01-17T04:38:36.448Z,1.63
2023-01-17T04:41:03.286Z,1.68
2023-01-17T04:43:30.231Z,1.75
2023-01-17T04:45:58.141Z,1.83
2023-01-17T04:48:26.676Z,1.93
2023-01-17T04:51:01.082Z,2.05
2023-01-17T04:53:28.252Z,2.15
2023-01-17T04:55:55.294Z,2.24
2023-01-17T04:58:22.343Z,2.35
2023-01-17T05:00:50.513Z,2.43
2023-01-17T05:03:19.654Z,2.49
2023-01-17T05:05:48.000Z,2.52
2023-01-17T05:08:14.941Z,2.55
2023-01-17T05:10:41.781Z,2.55
2023-01-17T05:13:08.936Z,2.56
2023-01-17T05:15:36.191Z,2.56
2023-01-17T05:18:08.044Z,2.58
2023-01-17T05:20:36.222Z,2.58
2023-01-17T05:23:02.968Z,2.58
2023-01-17T05:25:31.673Z,2.56
2023-01-17T05:27:59.740Z,2.52
2023-01-17T05:30:29.032Z,2.50
2023-01-17T05:32:57.809Z,2.50
2023-01-17T05:35:27.957Z,2.49
2023-01-17T05:37:55.691Z,2.50
2023-01-17T05:40:26.837Z,2.53
2023-01-17T05:42:56.454Z,2.55
2023-01-17T05:45:26.363Z,2.59
2023-01-17T05:47:55.255Z,2.65
2023-01-17T05:50:24.856Z,2.70
2023-01-17T05:52:56.856Z,2.75
2023-01-17T05:55:28.295Z,2.83
2023-01-17T05:57:55.403Z,2.88
2023-01-17T06:00:22.885Z,2.93
2023-01-17T06:02:52.415Z,3.01
2023-01-17T06:05:20.869Z,3.08
2023-01-17T06:07:50.659Z,3.13
2023-01-17T06:10:20.186Z,3.15
2023-01-17T06:12:47.761Z,3.13
2023-01-17T06:15:17.031Z,3.11
2023-01-17T06:17:43.786Z,3.08
2023-01-17T06:20:12.471Z,3.08
2023-01-17T06:22:39.332Z,3.08
2023-01-17T06:25:07.888Z,3.08
2023-01-17T06:27:34.962Z,3.05
2023-01-17T06:30:01.900Z,3.03
2023-01-17T06:32:29.052Z,3.00
2023-01-17T06:34:55.989Z,2.97
2023-01-17T06:37:23.147Z,2.97
2023-01-17T06:39:49.982Z,2.99
2023-01-17T06:42:16.996Z,2.98
2023-01-17T06:44:43.774Z,3.00
2023-01-17T06:47:10.717Z,3.06
2023-01-17T06:49:37.560Z,3.13
2023-01-17T06:52:04.613Z,3.18
2023-01-17T06:54:31.347Z,3.26
2023-01-17T06:56:58.294Z,3.34
2023-01-17T06:59:25.237Z,3.42
2023-01-17T07:01:52.403Z,3.51
2023-01-17T07:04:19.332Z,3.57
2023-01-17T07:06:46.183Z,3.62
2023-01-17T07:09:13.020Z,3.63
2023-01-17T07:11:40.069Z,3.70
2023-01-17T07:14:12.543Z,3.73
2023-01-17T07:16:39.901Z,3.76
2023-01-17T07:19:06.951Z,3.76
2023-01-17T07:21:33.739Z,3.77
2023-01-17T07:24:00.631Z,3.76
2023-01-17T07:26:27.581Z,3.77
2023-01-17T07:28:54.325Z,3.78
2023-01-17T07:31:21.183Z,3.80
2023-01-17T07:33:48.004Z,3.79
2023-01-17T07:36:15.031Z,3.80
2023-01-17T07:38:43.443Z,3.83
2023-01-17T07:41:11.134Z,3.87
2023-01-17T07:43:38.554Z,3.93
2023-01-17T07:46:07.549Z,4.00
2023-01-17T07:48:34.906Z,4.09
2023-01-17T07:51:01.845Z,4.18
2023-01-17T07:53:30.323Z,4.25
2023-01-17T07:56:02.288Z,4.31
2023-01-17T07:58:29.861Z,4.37
2023-01-17T08:01:08.571Z,4.43
2023-01-17T08:03:39.338Z,4.44
2023-01-17T08:06:15.986Z,4.51
2023-01-17T08:08:43.538Z,4.61
2023-01-17T08:11:10.286Z,4.63
2023-01-17T08:13:37.226Z,4.64
2023-01-17T08:16:04.956Z,4.62
2023-01-17T08:18:31.761Z,4.60
2023-01-17T08:21:01.039Z,4.60
2023-01-17T08:23:27.985Z,4.61
2023-01-17T08:26:00.051Z,4.61
2023-01-17T08:28:27.090Z,4.65
2023-01-17T08:30:53.833Z,4.70
2023-01-17T08:33:20.674Z,4.77
2023-01-17T08:35:51.925Z,4.84
2023-01-17T08:38:19.786Z,4.98
2023-01-17T08:40:46.736Z,5.12
2023-01-17T08:43:13.474Z,5.27
2023-01-17T08:45:43.399Z,5.42
2023-01-17T08:48:10.742Z,5.57
2023-01-17T08:50:37.791Z,5.69
2023-01-17T08:53:04.639Z,5.87
2023-01-17T08:55:33.012Z,6.16
2023-01-17T08:57:59.867Z,6.57
2023-01-17T09:00:28.137Z,7.12
2023-01-17T09:02:55.199Z,7.53
2023-01-17T09:05:22.334Z,7.75
2023-01-17T09:07:49.797Z,7.86
2023-01-17T09:10:17.348Z,7.90
2023-01-17T09:12:45.126Z,7.97
2023-01-17T09:15:17.179Z,8.07
2023-01-17T09:17:44.228Z,8.13
2023-01-17T09:20:11.363Z,8.21
2023-01-17T09:22:40.250Z,8.31
2023-01-17T09:25:08.033Z,8.34
2023-01-17T09:27:35.186Z,8.37
2023-01-17T09:30:03.975Z,8.49
2023-01-17T09:32:31.027Z,8.64
2023-01-17T09:35:00.442Z,8.75
2023-01-17T09:37:27.601Z,8.86
2023-01-17T09:39:54.645Z,8.93
2023-01-17T09:42:32.255Z,8.99
2023-01-17T09:44:59.176Z,9.00
2023-01-17T09:47:53.245Z,9.11
2023-01-17T09:50:24.702Z,9.32
2023-01-17T09:53:00.782Z,9.42
2023-01-17T09:55:38.348Z,9.44
2023-01-17T09:58:19.328Z,9.48
2023-01-17T10:00:56.610Z,9.58
2023-01-17T10:03:42.090Z,9.63
2023-01-17T10:06:15.949Z,9.63
2023-01-17T10:08:54.824Z,9.66
2023-01-17T10:11:46.456Z,9.65
2023-01-17T10:14:22.004Z,9.57
2023-01-17T10:17:13.112Z,9.47
2023-01-17T10:19:48.964Z,9.39
2023-01-17T10:22:40.181Z,9.35
2023-01-17T10:25:49.603Z,9.34
2023-01-17T10:28:23.735Z,9.41
2023-01-17T10:30:57.719Z,9.60
2023-01-17T10:33:29.632Z,9.84
2023-01-17T10:36:03.269Z,10.13
2023-01-17T10:38:42.870Z,10.54
2023-01-17T10:41:32.837Z,10.92
2023-01-17T10:44:05.351Z,11.23
2023-01-17T10:46:41.063Z,11.38
2023-01-17T10:49:23.169Z,11.42
2023-01-17T10:51:59.751Z,11.42
2023-01-17T10:54:58.576Z,11.49
2023-01-17T10:57:27.242Z,11.67
2023-01-17T10:59:59.522Z,11.88
2023-01-17T11:02:39.558Z,12.07
2023-01-17T11:05:19.901Z,12.08
2023-01-17T11:08:05.487Z,12.11
2023-01-17T11:10:39.285Z,12.19
2023-01-17T11:13:22.103Z,12.33
2023-01-17T11:15:52.876Z,12.52
2023-01-17T11:18:21.417Z,12.65
2023-01-17T11:20:49.402Z,12.72
2023-01-17T11:23:20.843Z,12.84
2023-01-17T11:25:55.077Z,12.92
2023-01-17T11:28:30.680Z,12.85
2023-01-17T11:31:01.186Z,12.78
2023-01-17T11:33:47.339Z,12.85
2023-01-17T11:36:18.381Z,12.97
2023-01-17T11:38:59.345Z,13.05
2023-01-17T11:41:30.081Z,13.17
2023-01-17T11:43:58.601Z,13.36
2023-01-17T11:46:29.393Z,13.62
2023-01-17T11:49:00.873Z,13.91
2023-01-17T11:51:43.052Z,14.21
2023-01-17T11:54:26.795Z,14.50
2023-01-17T11:56:59.016Z,14.70
2023-01-17T11:59:35.847Z,14.87
2023-01-17T12:02:36.577Z,15.12
2023-01-17T12:05:39.779Z,15.33
2023-01-17T12:08:25.672Z,15.51
2023-01-17T12:10:55.375Z,15.69
2023-01-17T12:14:01.138Z,15.67
2023-01-17T12:16:50.299Z,15.54
2023-01-17T12:19:31.986Z,15.46
2023-01-17T12:22:17.983Z,15.42
2023-01-17T12:25:06.750Z,15.44
2023-01-17T12:28:03.991Z,15.48
2023-01-17T12:30:33.710Z,15.50
2023-01-17T12:33:22.944Z,15.56
2023-01-17T12:36:01.076Z,15.59
2023-01-17T12:38:47.950Z,15.57
2023-01-17T12:41:23.794Z,15.48
2023-01-17T12:43:55.892Z,15.42
2023-01-17T12:46:33.628Z,15.36
2023-01-17T12:49:21.552Z,15.28
2023-01-17T12:51:55.455Z,15.21
2023-01-17T12:54:35.765Z,15.14
2023-01-17T12:57:14.028Z,15.11
2023-01-17T13:00:02.284Z,15.06
2023-01-17T13:02:47.237Z,15.06
2023-01-17T13:05:23.094Z,15.14
2023-01-17T13:08:02.221Z,15.19
2023-01-17T13:10:51.604Z,15.22
2023-01-17T13:13:23.451Z,15.20
2023-01-17T13:16:13.106Z,15.14
2023-01-17T13:18:45.860Z,15.04
2023-01-17T13:21:29.981Z,14.93
2023-01-17T13:23:58.548Z,14.83
2023-01-17T13:26:51.957Z,14.72
2023-01-17T13:29:47.639Z,14.62
2023-01-17T13:32:52.051Z,14.50
2023-01-17T13:35:25.779Z,14.38
2023-01-17T13:38:11.963Z,14.29
2023-01-17T13:40:57.953Z,14.19
2023-01-17T13:43:29.791Z,14.11
2023-01-17T13:45:59.874Z,14.03
2023-01-17T13:48:29.860Z,13.95
2023-01-17T13:51:09.204Z,13.87
2023-01-17T13:53:40.025Z,13.79
2023-01-17T13:56:19.179Z,13.71
2023-01-17T13:58:57.355Z,13.62
2023-01-17T14:01:24.119Z,13.52
2023-01-17T14:03:53.934Z,13.43
2023-01-17T14:06:32.758Z,13.35
2023-01-17T14:09:20.627Z,13.28
2023-01-17T14:12:06.465Z,13.18
2023-01-17T14:14:39.249Z,13.08
2023-01-17T14:17:16.183Z,12.99
2023-01-17T14:19:47.776Z,12.90
2023-01-17T14:22:27.331Z,12.81
2023-01-17T14:25:18.735Z,12.71
2023-01-17T14:27:49.477Z,12.60
2023-01-17T14:30:17.134Z,12.49
2023-01-17T14:33:02.516Z,12.37
2023-01-17T14:35:33.046Z,12.23
2023-01-17T14:38:05.107Z,12.10
2023-01-17T14:40:35.361Z,11.95
2023-01-17T14:43:13.557Z,11.81
2023-01-17T14:45:41.846Z,11.65
2023-01-17T14:48:21.045Z,11.53
2023-01-17T14:51:02.370Z,11.38
2023-01-17T14:53:31.595Z,11.22
2023-01-17T14:56:12.403Z,11.07
2023-01-17T14:58:40.779Z,10.91
2023-01-17T15:01:13.873Z,10.76
2023-01-17T15:03:53.821Z,10.62
2023-01-17T15:06:41.045Z,10.47
2023-01-17T15:09:18.013Z,10.32
2023-01-17T15:11:47.557Z,10.21
2023-01-17T15:14:21.545Z,10.10
2023-01-17T15:16:51.414Z,10.01
2023-01-17T15:19:19.628Z,9.94
2023-01-17T15:21:50.239Z,9.88
2023-01-17T15:24:24.670Z,9.81
2023-01-17T15:26:51.728Z,9.71
2023-01-17T15:29:31.745Z,9.63
2023-01-17T15:32:01.556Z,9.56
2023-01-17T15:34:30.501Z,9.52
2023-01-17T15:37:03.266Z,9.45
2023-01-17T15:39:33.500Z,9.37
2023-01-17T15:42:07.090Z,9.31
2023-01-17T15:44:47.994Z,9.24
2023-01-17T15:47:31.418Z,9.12
2023-01-17T15:50:00.704Z,9.02
2023-01-17T15:52:28.273Z,8.93
2023-01-17T15:55:11.690Z,8.83
2023-01-17T15:57:39.247Z,8.74
2023-01-17T16:00:19.915Z,8.65
2023-01-17T16:02:55.532Z,8.56
2023-01-17T16:05:32.647Z,8.48
2023-01-17T16:08:02.876Z,8.40
2023-01-17T16:10:36.613Z,8.32
2023-01-17T16:13:06.094Z,8.25
2023-01-17T16:15:35.404Z,8.18
2023-01-17T16:18:06.332Z,8.14
2023-01-17T16:20:59.155Z,8.12
2023-01-17T16:23:26.837Z,8.11
2023-01-17T16:25:53.782Z,8.09
2023-01-17T16:28:20.623Z,8.08
2023-01-17T16:30:49.038Z,8.08
2023-01-17T16:33:16.462Z,8.09
2023-01-17T16:35:43.713Z,8.10
2023-01-17T16:38:13.534Z,8.15
2023-01-17T16:40:45.916Z,8.18
2023-01-17T16:43:18.107Z,8.21
2023-01-17T16:45:47.725Z,8.21
2023-01-17T16:48:14.767Z,8.19
2023-01-17T16:50:47.590Z,8.17
2023-01-17T16:53:19.679Z,8.14
2023-01-17T16:55:46.925Z,8.11
2023-01-17T16:58:14.907Z,8.08
2023-01-17T17:00:42.871Z,8.02
2023-01-17T17:03:18.936Z,7.95
2023-01-17T17:05:54.581Z,7.88
2023-01-17T17:08:22.970Z,7.81
2023-01-17T17:10:49.897Z,7.76
2023-01-17T17:13:16.847Z,7.70
2023-01-17T17:15:46.723Z,7.65
2023-01-17T17:18:15.496Z,7.57
2023-01-17T17:20:43.525Z,7.52
2023-01-17T17:23:11.123Z,7.48
2023-01-17T17:25:38.342Z,7.48
2023-01-17T17:28:06.197Z,7.48
2023-01-17T17:30:33.962Z,7.49
2023-01-17T17:33:03.977Z,7.51
2023-01-17T17:35:34.404Z,7.53
2023-01-17T17:38:01.358Z,7.55
2023-01-17T17:40:28.396Z,7.57
2023-01-17T17:42:55.499Z,7.55
2023-01-17T17:45:22.696Z,7.53
2023-01-17T17:47:49.747Z,7.53
2023-01-17T17:50:16.587Z,7.50
2023-01-17T17:52:43.747Z,7.43
2023-01-17T17:55:10.692Z,7.34
2023-01-17T17:57:37.427Z,7.25
2023-01-17T18:00:05.814Z,7.18
2023-01-17T18:02:33.448Z,7.12
2023-01-17T18:05:01.789Z,7.06
2023-01-17T18:07:32.169Z,6.96
2023-01-17T18:09:59.125Z,6.89
2023-01-17T18:12:26.374Z,6.84
2023-01-17T18:14:53.418Z,6.82
2023-01-17T18:17:20.372Z,6.82
2023-01-17T18:19:47.214Z,6.82
2023-01-17T18:22:15.186Z,6.82
2023-01-17T18:24:42.632Z,6.82
2023-01-17T18:27:09.988Z,6.82
2023-01-17T18:29:36.937Z,6.80
2023-01-17T18:32:04.117Z,6.80
2023-01-17T18:34:33.699Z,6.83
2023-01-17T18:37:00.737Z,6.86
2023-01-17T18:39:29.561Z,6.89
2023-01-17T18:41:57.307Z,6.91
2023-01-17T18:44:26.135Z,6.93
2023-01-17T18:46:54.219Z,6.96
2023-01-17T18:49:21.411Z,6.98
2023-01-17T18:51:50.092Z,6.98
2023-01-17T18:54:18.686Z,6.98
2023-01-17T18:56:45.826Z,6.96
2023-01-17T18:59:14.116Z,6.93
2023-01-17T19:01:43.140Z,6.89
2023-01-17T19:04:12.073Z,6.85
2023-01-17T19:06:41.801Z,6.81
2023-01-17T19:09:11.307Z,6.78
2023-01-17T19:11:38.455Z,6.76
2023-01-17T19:14:06.352Z,6.76
2023-01-17T19:16:38.470Z,6.75
2023-01-17T19:19:08.815Z,6.73
2023-01-17T19:21:36.687Z,6.71
2023-01-17T19:24:04.447Z,6.70
2023-01-17T19:26:31.394Z,6.69
2023-01-17T19:28:58.441Z,6.67
2023-01-17T19:31:28.148Z,6.66
2023-01-17T19:33:57.553Z,6.65
2023-01-17T19:36:32.905Z,6.62
2023-01-17T19:39:04.855Z,6.61
2023-01-17T19:41:35.412Z,6.61
2023-01-17T19:44:05.153Z,6.60
2023-01-17T19:46:33.088Z,6.56
2023-01-17T19:49:00.645Z,6.54
2023-01-17T19:51:28.294Z,6.53
2023-01-17T19:53:56.169Z,6.50
2023-01-17T19:56:24.961Z,6.47
2023-01-17T19:58:53.023Z,6.44
2023-01-17T20:01:28.158Z,6.41
2023-01-17T20:03:58.093Z,6.38
2023-01-17T20:06:28.192Z,6.33
2023-01-17T20:08:55.554Z,6.29
2023-01-17T20:11:24.438Z,6.26
2023-01-17T20:13:55.292Z,6.26
2023-01-17T20:16:23.915Z,6.23
2023-01-17T20:18:51.370Z,6.21
2023-01-17T20:21:23.591Z,6.21
2023-01-17T20:23:52.361Z,6.22
2023-01-17T20:26:30.416Z,6.24
2023-01-17T20:28:57.225Z,6.30
2023-01-17T20:31:26.672Z,6.31
2023-01-17T20:33:55.007Z,6.33
2023-01-17T20:36:24.344Z,6.33
2023-01-17T20:38:52.685Z,6.35
2023-01-17T20:41:37.980Z,6.38
2023-01-17T20:44:09.004Z,6.40
2023-01-17T20:46:40.430Z,6.43
2023-01-17T20:49:16.416Z,6.42
2023-01-17T20:51:44.840Z,6.40
2023-01-17T20:54:14.379Z,6.37
2023-01-17T20:56:41.810Z,6.34
2023-01-17T20:59:12.738Z,6.27
2023-01-17T21:01:41.527Z,6.21
2023-01-17T21:04:10.158Z,6.15
2023-01-17T21:06:39.056Z,6.12
2023-01-17T21:09:08.301Z,6.06
2023-01-17T21:11:36.531Z,6.00
2023-01-17T21:14:08.244Z,5.94
2023-01-17T21:16:35.649Z,5.90
2023-01-17T21:19:03.114Z,5.86
2023-01-17T21:21:31.897Z,5.83
2023-01-17T21:23:59.584Z,5.82
2023-01-17T21:26:28.093Z,5.80
2023-01-17T21:28:56.105Z,5.77
2023-01-17T21:31:22.873Z,5.73
2023-01-17T21:33:51.949Z,5.72
2023-01-17T21:36:21.247Z,5.71
2023-01-17T21:38:56.389Z,5.71
2023-01-17T21:41:28.808Z,5.70
2023-01-17T21:43:58.124Z,5.66
2023-01-17T21:46:26.270Z,5.63
2023-01-17T21:48:53.493Z,5.62
2023-01-17T21:51:21.183Z,5.57
2023-01-17T21:53:48.198Z,5.52
2023-01-17T21:56:34.707Z,5.50
2023-01-17T21:59:01.562Z,5.47
2023-01-17T22:01:32.106Z,5.41
2023-01-17T22:04:02.190Z,5.36
2023-01-17T22:06:31.960Z,5.31
2023-01-17T22:08:59.152Z,5.24
2023-01-17T22:11:29.749Z,5.18
2023-01-17T22:13:59.535Z,5.12
2023-01-17T22:16:26.545Z,5.09
2023-01-17T22:18:53.703Z,5.06
2023-01-17T22:21:23.302Z,5.03
2023-01-17T22:23:51.702Z,5.01
2023-01-17T22:26:23.849Z,5.01
2023-01-17T22:28:50.727Z,5.02
2023-01-17T22:31:20.362Z,5.03
2023-01-17T22:33:52.775Z,5.05
2023-01-17T22:36:20.135Z,5.07
2023-01-17T22:38:47.583Z,5.09
2023-01-17T22:41:19.652Z,5.13
2023-01-17T22:43:48.956Z,5.17
2023-01-17T22:46:18.589Z,5.23
2023-01-17T22:48:45.920Z,5.31
2023-01-17T22:51:15.219Z,5.38
2023-01-17T22:54:00.602Z,5.45
2023-01-17T22:56:31.095Z,5.53
2023-01-17T22:59:00.099Z,5.63
2023-01-17T23:01:32.046Z,5.72
2023-01-17T23:04:02.131Z,5.82
2023-01-17T23:06:30.327Z,5.93
2023-01-17T23:09:00.192Z,5.99
2023-01-17T23:11:44.542Z,6.02
2023-01-17T23:14:15.888Z,6.07
2023-01-17T23:17:04.748Z,6.10
2023-01-17T23:19:37.211Z,6.12
2023-01-17T23:22:15.945Z,6.14
2023-01-17T23:24:46.988Z,6.15
2023-01-17T23:27:35.643Z,6.13
2023-01-17T23:30:14.883Z,6.11
2023-01-17T23:32:47.793Z,6.05
2023-01-17T23:35:18.190Z,6.00
2023-01-17T23:38:03.667Z,5.95
2023-01-17T23:40:32.351Z,5.89
2023-01-17T23:43:17.629Z,5.83
2023-01-17T23:45:44.675Z,5.76
2023-01-17T23:48:11.620Z,5.72
2023-01-17T23:50:40.716Z,5.68
2023-01-17T23:53:09.006Z,5.64
2023-01-17T23:55:39.429Z,5.61
2023-01-17T23:58:08.513Z,5.57
